Terminal Aerodrome Forecast
Issued by NWS

Home | Current Version | Previous Version | Graphics & Text | Print | Product List | Glossary On
Versions: 1 2 3 4 5 6 7 8 9 10 11 12 13
000
FTUS43 KICT 211731
TAFSLN
TAF
KSLN 211731Z 2118/2218 14007KT P6SM SCT250
     FM212300 08006KT P6SM BKN100
     FM220500 02007KT P6SM BKN060
     FM221000 36012KT P6SM BKN100
     FM221200 34012KT P6SM SCT110=

USA.gov is the U.S. government's official web portal to all federal, state and local government web resources and services.